Flight Track Log - Related Links

Times and Time Zones

All times are in EDT time to prevent confusion due to time zone crossing. See the SWA1319 flight status page for this flight to view local times or setup timezone preferences in your user account.

Time Position Orientation Groundspeed Altitude Reporting Facility
EDT Latitude Longitude Course Direction KTS MPH feet Rate Location/Type
Fri 06:11:35 PM 39.3500 -94.7333 322° Northwest 180 207 2,600  Level Kansas City TRACON
Fri 06:12:43 PM 39.3394 -94.8139 260° West 215 247 5,300 2,818 Climbing Kansas City Center
Fri 06:13:47 PM 39.3386 -94.9108 269° West 242 278 8,800 2,688 Climbing Kansas City Center
Fri 06:14:48 PM 39.3367 -94.9986 268° West 254 292 10,900 1,918 Climbing Kansas City Center
Fri 06:15:49 PM 39.3342 -95.1247 269° West 317 365 12,700 2,208 Climbing Kansas City Center
Fri 06:16:53 PM 39.3306 -95.2492 268° West 337 388 15,500 2,468 Climbing Kansas City Center
Fri 06:17:53 PM 39.3269 -95.3831 268° West 347 399 17,800 1,872 Climbing Kansas City Center
Fri 06:18:58 PM 39.3239 -95.4947 268° West 350 403 19,400 1,619 Climbing Kansas City Center
Fri 06:19:59 PM 39.3200 -95.6408 268° West 365 420 21,200 1,636 Climbing Kansas City Center
Fri 06:20:59 PM 39.3156 -95.7703 267° West 379 436 22,700 1,536 Climbing Kansas City Center
Fri 06:22:04 PM 39.3125 -95.9228 269° West 382 440 24,400 1,728 Climbing Kansas City Center
Fri 06:23:04 PM 39.3103 -96.0519 269° West 376 433 26,300 1,686 Climbing Kansas City Center
Fri 06:24:05 PM 39.3069 -96.1819 268° West 369 425 27,800 1,632 Climbing Kansas City Center
Fri 06:25:09 PM 39.3042 -96.3403 269° West 368 423 29,700 1,488 Climbing Kansas City Center
Fri 06:26:10 PM 39.3128 -96.4647 275° West 355 409 30,900 1,056 Climbing Kansas City Center
Fri 06:27:14 PM 39.3589 -96.5728 299° West 355 409 31,900 1,016 Climbing Kansas City Center
Fri 06:28:14 PM 39.4064 -96.6969 296° West 349 402 33,000 934 Climbing Kansas City Center
Fri 06:29:16 PM 39.4461 -96.8028 296° West 345 397 33,800 480 Climbing Kansas City Center
Fri 06:30:19 PM 39.4942 -96.9281 296° West 346 398 34,000 97 Climbing Kansas City Center
Fri 06:31:20 PM 39.5392 -97.0436 297° West 350 403 34,000  Level Kansas City Center
Fri 06:32:21 PM 39.5819 -97.1553 296° West 348 400 34,000  Level Kansas City Center
Fri 06:33:25 PM 39.6244 -97.2606 298° West 350 403 34,000  Level Kansas City Center
Fri 06:34:26 PM 39.6658 -97.3728 296° West 346 398 34,000  Level Kansas City Center
Fri 06:35:29 PM 39.7192 -97.5072 297° West 348 400 34,000  Level Kansas City Center
Fri 06:36:31 PM 39.7614 -97.6214 296° West 349 402 34,000  Level Kansas City Center
Fri 06:37:32 PM 39.8036 -97.7383 295° West 351 404 34,000  Level Kansas City Center
Fri 06:38:13 PM 39.8300 -97.8072 297° West 353 406 34,000  Level Denver Center
Fri 06:38:47 PM 39.8553 -97.8753 296° West 352 405 34,000  Level Minneapolis Center
Fri 06:39:49 PM 39.8975 -97.9900 296° West 353 406 34,000  Level Minneapolis Center
Fri 06:40:51 PM 39.9492 -98.1261 296° West 349 402 34,000  Level Minneapolis Center
Fri 06:41:53 PM 39.9914 -98.2397 296° West 348 400 34,000  Level Minneapolis Center
Fri 06:42:55 PM 40.0333 -98.3539 296° West 347 399 34,000  Level Minneapolis Center
Fri 06:43:57 PM 40.0747 -98.4686 295° West 348 400 34,000  Level Minneapolis Center
Fri 06:44:59 PM 40.1183 -98.5847 296° West 352 405 34,000  Level Minneapolis Center
Fri 06:46:00 PM 40.1603 -98.7014 295° West 353 406 34,000  Level Minneapolis Center
Fri 06:47:02 PM 40.2031 -98.8178 296° West 354 407 34,000  Level Minneapolis Center
Fri 06:47:31 PM 40.2278 -98.8886 295° West 353 406 34,000  Level Denver Center
Fri 06:48:33 PM 40.2689 -99.0033 295° West 349 402 34,000  Level Denver Center
Fri 06:49:35 PM 40.3106 -99.1197 295° West 350 403 34,000  Level Denver Center
Fri 06:50:37 PM 40.3525 -99.2347 296° West 349 402 34,000  Level Denver Center
Fri 06:51:10 PM 40.3781 -99.3053 295° West 351 404 34,000  Level Minneapolis Center
Fri 06:51:39 PM 40.3936 -99.3508 294° West 349 402 34,000  Level Denver Center
Fri 06:52:40 PM 40.4344 -99.4664 295° West 348 400 34,000  Level Denver Center
Fri 06:53:42 PM 40.4756 -99.5825 295° West 348 400 34,000  Level Denver Center
Fri 06:54:44 PM 40.5253 -99.7247 295° West 353 406 34,000  Level Denver Center
Fri 06:55:46 PM 40.5664 -99.8408 295° West 351 404 34,000  Level Denver Center
Fri 06:56:48 PM 40.6050 -99.9522 295° West 355 409 34,000  Level Denver Center
Fri 06:57:50 PM 40.6503 -100.0831 295° West 353 406 34,000  Level Denver Center
Fri 06:58:52 PM 40.6889 -100.1956 294° West 353 406 34,000  Level Denver Center
Fri 06:59:54 PM 40.7344 -100.3269 295° West 354 407 34,000  Level Denver Center
Fri 07:00:56 PM 40.7736 -100.4397 295° West 353 406 34,000  Level Denver Center
Fri 07:01:58 PM 40.8192 -100.5728 294° West 357 411 34,000  Level Denver Center
Fri 07:03:00 PM 40.8606 -100.6939 294° West 356 410 34,000  Level Denver Center
Fri 07:04:02 PM 40.8986 -100.8122 293° West 352 405 34,000  Level Denver Center
Fri 07:05:04 PM 40.9378 -100.9250 295° West 355 409 34,000  Level Denver Center
Fri 07:06:06 PM 40.9828 -101.0583 294° West 357 411 34,000  Level Denver Center
Fri 07:07:08 PM 41.0211 -101.1731 294° West 357 411 34,000  Level Denver Center
Fri 07:08:10 PM 41.0656 -101.3058 294° West 355 409 34,000  Level Denver Center
Fri 07:09:12 PM 41.1036 -101.4211 294° West 357 411 34,000  Level Denver Center
Fri 07:10:14 PM 41.1475 -101.5550 294° West 356 410 34,000  Level Denver Center
Fri 07:11:16 PM 41.1858 -101.6697 294° West 356 410 34,000  Level Denver Center
Fri 07:12:18 PM 41.2303 -101.8047 294° West 357 411 34,000  Level Denver Center
Fri 07:13:20 PM 41.2667 -101.9211 293° West 357 411 34,000  Level Denver Center
Fri 07:14:23 PM 41.3111 -102.0572 294° West 359 413 34,000  Level Denver Center
Fri 07:15:24 PM 41.3478 -102.1739 293° West 359 413 34,000  Level Denver Center
Fri 07:16:26 PM 41.3908 -102.3094 293° West 357 411 34,000  Level Denver Center
Fri 07:17:28 PM 41.4292 -102.4247 294° West 356 410 34,000  Level Denver Center
Fri 07:18:30 PM 41.4706 -102.5614 292° West 355 409 34,000  Level Denver Center
Fri 07:19:32 PM 41.5092 -102.6803 293° West 355 409 34,000 290 Level Denver Center
Fri 07:20:34 PM 41.5453 -102.7964 293° West 355 409 34,600 629 Climbing Denver Center
Fri 07:21:36 PM 41.5875 -102.9314 293° West 353 406 35,300 677 Climbing Denver Center
Fri 07:22:38 PM 41.6247 -103.0492 293° West 359 413 36,000 339 Climbing Denver Center
Fri 07:23:40 PM 41.6667 -103.1886 292° West 361 415 36,000  Level Denver Center
Fri 07:24:42 PM 41.7042 -103.3058 293° West 359 413 36,000  Level Denver Center
Fri 07:25:44 PM 41.7461 -103.4458 292° West 361 415 36,000  Level Denver Center
Fri 07:26:46 PM 41.7836 -103.5639 293° West 360 414 36,000  Level Denver Center
Fri 07:27:48 PM 41.8247 -103.7042 292° West 361 415 36,000  Level Denver Center
Fri 07:28:50 PM 41.8614 -103.8250 292° West 363 418 36,000 -290 Level Denver Center
Fri 07:29:52 PM 41.8981 -103.9456 292° West 365 420 35,400 -871 Descending Denver Center
Fri 07:30:54 PM 41.9386 -104.0828 292° West 355 409 34,200 -677 Descending Denver Center
Fri 07:31:56 PM 41.9739 -104.2008 292° West 354 407 34,000 -97 Descending Denver Center
Fri 07:32:58 PM 42.0150 -104.3386 292° West 356 410 34,000  Level Denver Center
Fri 07:34:00 PM 42.0506 -104.4575 292° West 357 411 34,000  Level Denver Center
Fri 07:35:02 PM 42.0919 -104.5972 292° West 358 412 34,000  Level Denver Center
Fri 07:36:04 PM 42.1264 -104.7156 291° West 354 407 34,000  Level Denver Center
Fri 07:37:06 PM 42.1672 -104.8556 292° West 358 412 34,000  Level Denver Center
Fri 07:38:08 PM 42.2008 -104.9742 291° West 353 406 34,000  Level Denver Center
Fri 07:39:10 PM 42.2353 -105.0917 292° West 350 403 34,000  Level Denver Center
Fri 07:40:12 PM 42.2742 -105.2311 291° West 354 407 34,000  Level Denver Center
Fri 07:41:14 PM 42.3097 -105.3528 292° West 361 415 34,000  Level Denver Center
Fri 07:42:16 PM 42.3500 -105.4961 291° West 367 422 34,000  Level Denver Center
Fri 07:43:18 PM 42.3850 -105.6189 291° West 365 420 34,000  Level Denver Center
Fri 07:44:20 PM 42.4256 -105.7642 291° West 367 422 34,000  Level Denver Center
Fri 07:45:22 PM 42.4608 -105.8875 291° West 367 422 34,000  Level Denver Center
Fri 07:46:24 PM 42.5011 -106.0333 291° West 370 426 34,000  Level Denver Center
Fri 07:47:26 PM 42.5347 -106.1581 290° West 368 423 34,000  Level Denver Center
Fri 07:48:28 PM 42.5686 -106.2828 290° West 369 425 34,000  Level Denver Center
Fri 07:49:30 PM 42.6097 -106.4275 291° West 368 423 34,000  Level Denver Center
Fri 07:50:32 PM 42.6428 -106.5522 290° West 366 421 34,000  Level Denver Center
Fri 07:51:34 PM 42.6822 -106.6978 290° West 365 420 34,000  Level Denver Center
Fri 07:52:36 PM 42.7158 -106.8219 290° West 367 422 34,000  Level Denver Center
Fri 07:53:38 PM 42.7558 -106.9692 290° West 370 426 34,000  Level Denver Center
Fri 07:54:40 PM 42.7886 -107.0961 289° West 372 428 34,000  Level Denver Center
Fri 07:55:07 PM 42.8069 -107.1678 289° West 374 430 34,000  Level Salt Lake Center
Fri 07:56:08 PM 42.8406 -107.2947 290° West 375 432 34,000  Level Salt Lake Center
Fri 07:57:10 PM 42.8797 -107.4444 290° West 376 433 34,000  Level Salt Lake Center
Fri 07:57:46 PM 42.8989 -107.5158 290° West 380 437 34,000  Level Denver Center
Fri 07:58:48 PM 42.9361 -107.6592 290° West 378 435 34,000  Level Denver Center
Fri 07:59:14 PM 42.9489 -107.7111 289° West 381 438 34,000  Level Salt Lake Center
Fri 08:00:16 PM 42.9878 -107.8628 289° West 378 435 34,000  Level Salt Lake Center
Fri 08:01:18 PM 43.0217 -107.9928 290° West 379 436 34,000  Level Salt Lake Center
Fri 08:02:19 PM 43.0544 -108.1217 289° West 375 432 34,000  Level Salt Lake Center
Fri 08:03:21 PM 43.0922 -108.2728 289° West 375 432 34,000  Level Salt Lake Center
Fri 08:04:23 PM 43.1253 -108.4033 289° West 378 435 34,000  Level Salt Lake Center
Fri 08:05:25 PM 43.1631 -108.5536 289° West 375 432 34,000 146 Level Salt Lake Center
Fri 08:06:26 PM 43.1944 -108.6822 289° West 373 429 34,300 732 Climbing Salt Lake Center
Fri 08:07:28 PM 43.2317 -108.8331 289° West 373 429 35,500 823 Climbing Salt Lake Center
Fri 08:08:30 PM 43.2631 -108.9628 288° West 373 429 36,000 244 Climbing Salt Lake Center
Fri 08:09:31 PM 43.2944 -109.0892 289° West 369 425 36,000  Level Salt Lake Center
Fri 08:10:33 PM 43.3300 -109.2339 289° West 362 417 36,000  Level Salt Lake Center
Fri 08:11:35 PM 43.3606 -109.3619 288° West 367 422 36,000  Level Salt Lake Center
Fri 08:12:37 PM 43.3961 -109.5117 288° West 370 426 36,000  Level Salt Lake Center
Fri 08:13:38 PM 43.4269 -109.6414 288° West 371 427 36,000  Level Salt Lake Center
Fri 08:14:40 PM 43.4642 -109.7950 289° West 377 434 36,000  Level Salt Lake Center
Fri 08:15:42 PM 43.4978 -109.9308 289° West 376 433 36,000  Level Salt Lake Center
Fri 08:16:43 PM 43.5289 -110.0681 287° West 381 438 36,000  Level Salt Lake Center
Fri 08:17:45 PM 43.5600 -110.2006 288° West 381 438 36,000  Level Salt Lake Center
Fri 08:18:47 PM 43.5950 -110.3547 287° West 377 434 36,000  Level Salt Lake Center
Fri 08:19:49 PM 43.6256 -110.4872 288° West 377 434 36,000  Level Salt Lake Center
Fri 08:20:50 PM 43.6594 -110.6400 287° West 373 429 36,000  Level Salt Lake Center
Fri 08:21:52 PM 43.6908 -110.7731 288° West 380 437 36,000  Level Salt Lake Center
Fri 08:22:54 PM 43.7258 -110.9272 287° West 376 433 36,000  Level Salt Lake Center
Fri 08:23:56 PM 43.7550 -111.0611 287° West 380 437 36,000  Level Salt Lake Center
Fri 08:24:57 PM 43.7847 -111.1928 287° West 376 433 36,000  Level Salt Lake Center
Fri 08:25:59 PM 43.8189 -111.3467 287° West 374 430 36,000  Level Salt Lake Center
Fri 08:27:01 PM 43.8481 -111.4792 287° West 375 432 36,000  Level Salt Lake Center
Fri 08:28:03 PM 43.8806 -111.6333 286° West 374 430 36,000  Level Salt Lake Center
Fri 08:29:04 PM 43.9089 -111.7661 287° West 373 429 36,000  Level Salt Lake Center
Fri 08:30:06 PM 43.9433 -111.9208 287° West 375 432 36,000  Level Salt Lake Center
Fri 08:31:08 PM 43.9708 -112.0542 286° West 374 430 36,000  Level Salt Lake Center
Fri 08:32:10 PM 43.9986 -112.1853 286° West 370 426 36,000  Level Salt Lake Center
Fri 08:33:11 PM 44.0314 -112.3408 286° West 374 430 36,000  Level Salt Lake Center
Fri 08:34:13 PM 44.0592 -112.4764 286° West 379 436 36,000  Level Salt Lake Center
Fri 08:35:15 PM 44.0931 -112.6353 287° West 381 438 36,000  Level Salt Lake Center
Fri 08:36:17 PM 44.1192 -112.7697 285° West 379 436 36,000  Level Salt Lake Center
Fri 08:37:19 PM 44.1475 -112.9061 286° West 381 438 36,000  Level Salt Lake Center
Fri 08:38:20 PM 44.1797 -113.0650 286° West 381 438 36,000  Level Salt Lake Center
Fri 08:39:22 PM 44.2092 -113.2028 287° West 384 442 36,000  Level Salt Lake Center
Fri 08:40:24 PM 44.2406 -113.3642 285° West 386 444 36,000  Level Salt Lake Center
Fri 08:41:26 PM 44.2672 -113.5022 285° West 386 444 36,000  Level Salt Lake Center
Fri 08:42:27 PM 44.3008 -113.6647 286° West 388 447 36,000  Level Salt Lake Center
Fri 08:43:29 PM 44.3286 -113.8028 286° West 388 447 36,000  Level Salt Lake Center
Fri 08:44:31 PM 44.3581 -113.9628 284° West 386 444 36,000  Level Salt Lake Center
Fri 08:45:33 PM 44.3842 -114.1006 285° West 384 442 36,000  Level Salt Lake Center
Fri 08:46:34 PM 44.4125 -114.2383 286° West 385 443 36,000  Level Salt Lake Center
Fri 08:47:36 PM 44.4433 -114.3997 285° West 385 443 36,000  Level Salt Lake Center
Fri 08:48:38 PM 44.4700 -114.5392 285° West 387 445 36,000  Level Salt Lake Center
Fri 08:49:39 PM 44.5000 -114.7003 285° West 385 443 36,000  Level Salt Lake Center
Fri 08:50:41 PM 44.5244 -114.8378 284° West 383 441 36,000  Level Salt Lake Center
Fri 08:51:42 PM 44.5531 -115.0028 284° West 389 448 36,000  Level Salt Lake Center
Fri 08:52:44 PM 44.5767 -115.1428 283° West 388 447 36,000  Level Salt Lake Center
Fri 08:53:46 PM 44.6006 -115.2842 283° West 390 449 36,000  Level Salt Lake Center
Fri 08:54:47 PM 44.6286 -115.4506 283° West 392 451 36,000  Level Salt Lake Center
Fri 08:55:49 PM 44.6522 -115.5936 283° West 394 453 36,000  Level Salt Lake Center
Fri 08:56:50 PM 44.6789 -115.7603 283° West 393 452 36,000  Level Salt Lake Center
Fri 08:57:52 PM 44.7022 -115.9031 283° West 395 455 36,000  Level Salt Lake Center
Fri 08:58:54 PM 44.7289 -116.0703 283° West 396 456 36,000  Level Salt Lake Center
Fri 08:59:55 PM 44.7514 -116.2131 283° West 395 455 36,000  Level Salt Lake Center
Fri 09:00:57 PM 44.7778 -116.3808 283° West 396 456 36,000  Level Salt Lake Center
Fri 09:01:58 PM 44.8011 -116.5250 283° West 396 456 36,000  Level Salt Lake Center
Fri 09:03:00 PM 44.8264 -116.6936 282° West 396 456 36,000  Level Salt Lake Center
Fri 09:04:01 PM 44.8489 -116.8378 282° West 395 455 36,000  Level Salt Lake Center
Fri 09:05:03 PM 44.8708 -116.9817 282° West 395 455 36,000  Level Salt Lake Center
Fri 09:06:04 PM 44.8967 -117.1486 282° West 391 450 36,000  Level Salt Lake Center
Fri 09:06:52 PM 44.9136 -117.2692 281° West 392 451 36,000  Level Seattle Center
Fri 09:07:53 PM 44.9356 -117.4114 282° West 389 448 36,000  Level Seattle Center
Fri 09:08:54 PM 44.9556 -117.5517 281° West 384 442 36,000  Level Seattle Center
Fri 09:09:55 PM 44.9800 -117.7150 282° West 381 438 36,000  Level Seattle Center
Fri 09:10:11 PM 44.9833 -117.7378 282° West 381 438 36,000  Level Salt Lake Center
Fri 09:11:12 PM 45.0072 -117.9031 282° West 384 442 36,000  Level Salt Lake Center
Fri 09:11:56 PM 45.0197 -117.9953 281° West 377 434 36,000  Level Seattle Center
Fri 09:12:57 PM 45.0439 -118.1589 282° West 380 437 36,000  Level Seattle Center
Fri 09:13:15 PM 45.0492 -118.1972 281° West 380 437 36,000  Level Salt Lake Center
Fri 09:14:17 PM 45.0689 -118.3408 281° West 375 432 36,000  Level Salt Lake Center
Fri 09:14:59 PM 45.0858 -118.4558 282° West 376 433 36,000  Level Seattle Center
Fri 09:15:59 PM 45.1050 -118.5986 281° West 372 428 36,000  Level Seattle Center
Fri 09:17:00 PM 45.1236 -118.7428 280° West 373 429 36,000  Level Seattle Center
Fri 09:18:01 PM 45.1431 -118.8847 281° West 370 426 36,000  Level Seattle Center
Fri 09:19:02 PM 45.1625 -119.0292 281° West 373 429 36,000  Level Seattle Center
Fri 09:20:03 PM 45.1811 -119.1717 281° West 373 429 36,000  Level Seattle Center
Fri 09:21:03 PM 45.2006 -119.3167 281° West 376 433 36,000  Level Seattle Center
Fri 09:22:04 PM 45.2181 -119.4606 280° West 373 429 36,000  Level Seattle Center
Fri 09:23:05 PM 45.2369 -119.6028 281° West 372 428 36,000  Level Seattle Center
Fri 09:24:06 PM 45.2544 -119.7433 280° West 367 422 36,000  Level Seattle Center
Fri 09:25:06 PM 45.2719 -119.8858 280° West 370 426 36,000  Level Seattle Center
Fri 09:26:07 PM 45.2894 -120.0264 280° West 368 423 36,000  Level Seattle Center
Fri 09:27:08 PM 45.3100 -120.1978 280° West 369 425 36,000 -541 Level Seattle Center
Fri 09:28:09 PM 45.3264 -120.3386 279° West 365 420 34,900 -1,967 Descending Seattle Center
Fri 09:29:10 PM 45.3447 -120.4811 280° West 366 421 32,000 -2,579 Descending Seattle Center
Fri 09:30:10 PM 45.3614 -120.6239 279° West 368 423 29,700 -2,182 Descending Seattle Center
Fri 09:31:11 PM 45.3778 -120.7608 280° West 352 405 27,600 -2,016 Descending Seattle Center
Fri 09:32:12 PM 45.3931 -120.8903 280° West 334 384 25,600 -1,967 Descending Seattle Center
Fri 09:33:13 PM 45.4061 -121.0144 279° West 320 368 23,600 -2,016 Descending Seattle Center
Fri 09:34:14 PM 45.4217 -121.1444 280° West 330 380 21,500 -1,934 Descending Seattle Center
Fri 09:35:14 PM 45.4367 -121.2703 280° West 324 373 19,700 -1,929 Descending Seattle Center
Fri 09:36:06 PM 45.4522 -121.3908 280° West 316 364 17,900 -2,143 Descending Seattle Center
Fri 09:37:06 PM 45.4681 -121.5261 280° West 328 377 15,700 -2,182 Descending Seattle Center
Fri 09:38:07 PM 45.4836 -121.6522 280° West 317 365 13,500 -1,623 Descending Seattle Center
Fri 09:39:08 PM 45.4964 -121.7644 279° West 279 321 12,400 -1,289 Descending Seattle Center
Fri 09:40:08 PM 45.4967 -121.8694 270° West 253 291 10,900 -1,701 Descending Seattle Center
Fri 09:41:15 PM 45.4836 -121.9736 260° West 257 296 8,800 -1,672 Descending Seattle Center
Fri 09:42:10 PM 45.4533 -122.0575 243° Southwest 257 296 7,500 -1,596 Descending Seattle Center
Fri 09:43:04 PM 45.4314 -122.1406 249° West 252 290 5,900 -1,457 Descending Seattle Center
Fri 09:43:20 PM 45.4319 -122.1661 272° West 240 276 5,800 -701 Descending Seattle Center
Fri 09:44:21 PM 45.4547 -122.2394 294° West 205 236 5,000 -970 Descending Seattle Center
Fri 09:44:59 PM 45.4717 -122.2842 298° West 195 224 4,200 -1,377 Descending Seattle Center
Fri 09:45:22 PM 45.4831 -122.3081 304° West 201 231 3,600 -689 Descending Seattle Center
Fri 09:46:00 PM 45.4994 -122.3558 296° West 212 244 3,500 -492 Descending Seattle Center
Fri 09:46:23 PM 45.5106 -122.3808 302° West 205 236 3,100 -1,164 Descending Seattle Center
Fri 09:47:07 PM 45.5314 -122.4383 297° West 205 236 2,200 -1,100 Descending Seattle Center
Fri 09:47:23 PM 45.5386 -122.4492 314° West 204 235 2,000 -800 Descending Seattle Center
Fri 09:48:07 PM 45.5525 -122.4883 297° West 123 142 1,400 -787 Descending Seattle Center
Fri 09:48:24 PM 45.5583 -122.5006 304° West 181 208 1,200 -689 Descending Seattle Center
Fri 09:49:08 PM 45.5697 -122.5306 298° West 121 139 700 -689 Descending Seattle Center
Fri 09:49:25 PM 45.5731 -122.5381 302° West 146 168 500 -234 Descending Seattle Center
Fri 09:50:25 PM 45.5872 -122.5789 296° West 141 162 400 -100 Descending Seattle Center

Login

Don't have an account? Register now (free) for customized features, flight alerts, and more!